Time;durP1;ratioP1;P1;durP2;ratioP2;P2;SDS_P1;SDS_P2;PMS_P1;PMS_P2;Temp;Humidity;BMP_temperature;BMP_pressure;BME280_temperature;BME280_humidity;BME280_pressure;Samples;Min_cycle;Max_cycle;Signal;HPM_P1;HPM_P2
2021/03/30 00:00:38;;;;;;;7.20;2.55;;;13.70;99.90;;;;;;5054911;28;20024;-85
2021/03/30 00:03:04;;;;;;;8.65;1.92;;;13.70;99.90;;;;;;5039204;28;20556;-86
2021/03/30 00:05:29;;;;;;;9.07;2.00;;;13.70;99.90;;;;;;5071789;28;20074;-85
2021/03/30 00:07:55;;;;;;;9.68;1.83;;;13.70;99.90;;;;;;5089942;28;20048;-84
2021/03/30 00:10:26;;;;;;;10.07;2.47;;;13.70;99.90;;;;;;5055491;28;20028;-87
2021/03/30 00:12:52;;;;;;;8.57;2.00;;;13.70;99.90;;;;;;5072987;28;20016;-82
2021/03/30 00:15:17;;;;;;;10.07;2.10;;;13.70;99.90;;;;;;5038582;28;20055;-84
2021/03/30 00:17:43;;;;;;;6.80;2.67;;;13.70;99.90;;;;;;5054759;28;20089;-84
2021/03/30 00:20:14;;;;;;;8.20;1.92;;;13.70;99.90;;;;;;5072379;28;20078;-83
2021/03/30 00:22:41;;;;;;;7.93;1.95;;;13.70;99.90;;;;;;5072245;28;20451;-86
2021/03/30 00:25:08;;;;;;;10.43;2.92;;;13.70;99.90;;;;;;5072397;28;20030;-86
2021/03/30 00:27:34;;;;;;;12.93;2.65;;;13.70;99.90;;;;;;5072016;28;20495;-85
2021/03/30 00:29:59;;;;;;;7.78;1.83;;;13.70;99.90;;;;;;5072722;28;20107;-85
2021/03/30 00:32:25;;;;;;;7.82;2.38;;;13.70;99.90;;;;;;5072322;28;20441;-85
2021/03/30 00:34:51;;;;;;;8.02;2.20;;;13.70;99.90;;;;;;5055266;28;20219;-86
2021/03/30 00:37:17;;;;;;;7.55;2.35;;;13.70;99.90;;;;;;5038705;28;20047;-86
2021/03/30 00:39:42;;;;;;;7.30;1.63;;;13.70;99.90;;;;;;5055576;28;20024;-84
2021/03/30 00:42:08;;;;;;;9.23;1.88;;;13.70;99.90;;;;;;5072098;28;20025;-84
2021/03/30 00:44:34;;;;;;;5.70;1.50;;;13.70;99.90;;;;;;5072330;28;20028;-85
2021/03/30 00:47:01;;;;;;;7.80;2.38;;;13.60;99.90;;;;;;5071847;28;20024;-85
2021/03/30 00:49:31;;;;;;;8.70;2.10;;;13.60;99.90;;;;;;5055445;28;20447;-84
2021/03/30 00:51:57;;;;;;;7.22;2.55;;;13.60;99.90;;;;;;5072515;28;20041;-84
2021/03/30 00:54:25;;;;;;;6.63;1.60;;;13.60;99.90;;;;;;5072893;28;20107;-83
2021/03/30 00:56:51;;;;;;;10.88;2.10;;;13.60;99.90;;;;;;5071649;28;20028;-86
2021/03/30 00:59:20;;;;;;;7.28;2.83;;;13.60;99.90;;;;;;5054745;28;20039;-84
2021/03/30 01:01:46;;;;;;;5.68;1.77;;;13.60;99.90;;;;;;5073341;28;20032;-84
2021/03/30 01:04:13;;;;;;;8.52;2.25;;;13.60;99.90;;;;;;5075621;28;20056;-85
2021/03/30 01:06:39;;;;;;;10.77;2.50;;;13.60;99.90;;;;;;5075850;28;20035;-85
2021/03/30 01:09:24;;;;;;;9.25;2.28;;;13.50;99.90;;;;;;5076195;28;20052;-85
2021/03/30 01:12:26;;;;;;;9.57;1.80;;;13.50;99.90;;;;;;5093609;28;20031;-86
2021/03/30 01:15:34;;;;;;;10.38;2.22;;;13.50;99.90;;;;;;5075949;28;20051;-84
2021/03/30 01:18:19;;;;;;;11.55;2.17;;;13.50;99.90;;;;;;5075696;28;20509;-86
2021/03/30 01:21:39;;;;;;;4.47;1.70;;;13.50;99.90;;;;;;5075130;28;20032;-84
2021/03/30 01:24:13;;;;;;;10.07;2.70;;;13.50;99.90;;;;;;4991563;28;20058;-85
2021/03/30 01:26:55;;;;;;;7.50;2.03;;;13.50;99.90;;;;;;5049251;28;20039;-86
2021/03/30 01:29:50;;;;;;;6.05;1.90;;;13.50;99.90;;;;;;5074937;28;20466;-84
2021/03/30 01:32:34;;;;;;;8.77;2.95;;;13.50;99.90;;;;;;5092825;28;20385;-85
2021/03/30 01:35:02;;;;;;;5.90;1.95;;;13.50;99.90;;;;;;5093315;28;20024;-86
2021/03/30 01:37:28;;;;;;;6.70;1.88;;;13.50;99.90;;;;;;5074951;28;20074;-84
2021/03/30 01:40:00;;;;;;;7.45;2.30;;;13.50;99.90;;;;;;5075308;28;20094;-85
2021/03/30 01:42:29;;;;;;;8.48;2.70;;;13.50;99.90;;;;;;5075028;28;20501;-83
2021/03/30 01:44:55;;;;;;;;;;;13.50;99.90;;;;;;5093402;28;20034;-85
2021/03/30 01:47:22;;;;;;;10.55;2.15;;;13.50;99.90;;;;;;5074382;28;19947;-86
2021/03/30 01:49:49;;;;;;;8.05;2.70;;;13.50;99.90;;;;;;5058190;28;20028;-84
2021/03/30 01:52:19;;;;;;;9.63;2.40;;;13.40;99.90;;;;;;5074184;28;20052;-84
2021/03/30 01:54:47;;;;;;;9.80;2.20;;;13.40;99.90;;;;;;5092705;28;20012;-85
2021/03/30 01:57:14;;;;;;;9.57;2.60;;;13.30;99.90;;;;;;5092419;28;20444;-85
2021/03/30 01:59:42;;;;;;;8.40;2.22;;;13.30;99.90;;;;;;5073974;28;20078;-85
2021/03/30 02:02:08;;;;;;;10.90;2.60;;;13.30;99.90;;;;;;5074063;28;20372;-86
2021/03/30 02:04:35;;;;;;;12.27;2.47;;;13.30;99.90;;;;;;5073948;28;20032;-85
2021/03/30 02:07:02;;;;;;;10.40;2.92;;;13.20;99.90;;;;;;5091908;28;20105;-85
2021/03/30 02:09:32;;;;;;;8.10;3.28;;;13.20;99.90;;;;;;5091814;28;20070;-84
2021/03/30 02:12:06;;;;;;;6.18;2.38;;;13.20;99.90;;;;;;5073902;28;20028;-85
2021/03/30 02:14:33;;;;;;;7.45;2.20;;;13.20;99.90;;;;;;5075187;28;20024;-84
2021/03/30 02:17:06;;;;;;;9.10;2.45;;;13.20;99.90;;;;;;5091972;28;20095;-85
2021/03/30 02:19:40;;;;;;;9.25;2.72;;;13.10;99.90;;;;;;5074010;28;20103;-85
2021/03/30 02:22:13;;;;;;;10.98;2.88;;;13.10;99.90;;;;;;5074432;28;20390;-86
2021/03/30 02:24:40;;;;;;;7.38;2.47;;;13.10;99.90;;;;;;5091912;28;20059;-85
2021/03/30 02:27:09;;;;;;;7.20;2.40;;;13.10;99.90;;;;;;5073453;28;20482;-85
2021/03/30 02:29:36;;;;;;;9.02;2.40;;;13.10;99.90;;;;;;5056940;28;20059;-84
2021/03/30 02:32:07;;;;;;;9.75;3.58;;;13.00;99.90;;;;;;5091497;28;20028;-85
2021/03/30 02:34:35;;;;;;;6.47;2.38;;;13.00;99.90;;;;;;5073928;28;20087;-84
2021/03/30 02:37:01;;;;;;;8.43;3.17;;;13.00;99.90;;;;;;5057206;28;20024;-84
2021/03/30 02:39:28;;;;;;;11.73;2.60;;;13.00;99.90;;;;;;5073841;28;20087;-86
2021/03/30 02:41:57;;;;;;;10.57;2.63;;;13.00;99.90;;;;;;5073502;28;20101;-85
2021/03/30 02:44:23;;;;;;;7.07;2.83;;;12.90;99.90;;;;;;5073785;28;20486;-85
2021/03/30 02:46:50;;;;;;;12.80;3.10;;;12.90;99.90;;;;;;5057049;28;20039;-87
2021/03/30 02:49:18;;;;;;;11.13;2.65;;;12.90;99.90;;;;;;5073895;28;20032;-85
2021/03/30 02:51:46;;;;;;;9.05;2.88;;;12.90;99.90;;;;;;5056298;28;20130;-86
2021/03/30 02:54:13;;;;;;;12.60;3.15;;;12.90;99.90;;;;;;5055887;28;20031;-84
2021/03/30 02:56:39;;;;;;;8.07;2.85;;;12.80;99.90;;;;;;5090957;28;20437;-84
2021/03/30 02:59:05;;;;;;;11.00;3.60;;;12.80;99.90;;;;;;5055995;28;20024;-86
2021/03/30 03:01:32;;;;;;;14.98;3.60;;;12.90;99.90;;;;;;5038695;28;20024;-86
2021/03/30 03:04:01;;;;;;;11.63;3.30;;;12.80;99.90;;;;;;5055812;28;20042;-87
2021/03/30 03:06:29;;;;;;;7.72;3.38;;;12.80;99.90;;;;;;5056719;28;20394;-88
2021/03/30 03:08:56;;;;;;;10.10;3.13;;;12.80;99.90;;;;;;5072633;28;20036;-86
2021/03/30 03:11:22;;;;;;;11.25;3.10;;;12.70;99.90;;;;;;5090369;28;20104;-87
2021/03/30 03:13:50;;;;;;;7.22;2.90;;;12.70;99.90;;;;;;5072862;28;20447;-86
2021/03/30 03:16:20;;;;;;;9.70;3.05;;;12.70;99.90;;;;;;5091231;28;20062;-88
2021/03/30 03:18:47;;;;;;;10.98;2.70;;;12.60;99.90;;;;;;5074010;28;20023;-86
2021/03/30 03:21:14;;;;;;;9.90;3.35;;;12.60;99.90;;;;;;5055811;28;20375;-84
2021/03/30 03:23:41;;;;;;;9.27;3.05;;;12.50;99.90;;;;;;5072350;28;20080;-85
2021/03/30 03:26:10;;;;;;;11.63;3.78;;;12.50;99.90;;;;;;5072474;28;20398;-86
2021/03/30 03:28:44;;;;;;;11.98;3.70;;;12.50;99.90;;;;;;5072234;28;20035;-85
2021/03/30 03:31:14;;;;;;;11.02;3.45;;;12.40;99.90;;;;;;5072535;28;20372;-87
2021/03/30 03:33:40;;;;;;;12.50;3.10;;;12.40;99.90;;;;;;5073889;28;20031;-86
2021/03/30 03:36:09;;;;;;;16.63;3.88;;;12.40;99.90;;;;;;5090335;28;20028;-84
2021/03/30 03:38:42;;;;;;;11.98;3.58;;;12.40;99.90;;;;;;5073007;28;20111;-83
2021/03/30 03:41:14;;;;;;;9.45;2.85;;;12.30;99.90;;;;;;5072551;28;20032;-87
2021/03/30 03:43:40;;;;;;;9.65;3.05;;;12.30;99.90;;;;;;5089984;28;20051;-86
2021/03/30 03:46:06;;;;;;;13.18;2.78;;;12.30;99.90;;;;;;5072316;28;20519;-86
2021/03/30 03:48:32;;;;;;;11.35;2.83;;;12.30;99.90;;;;;;5038461;28;20028;-86
2021/03/30 03:51:01;;;;;;;6.75;2.72;;;12.30;99.90;;;;;;5070949;28;20052;-87
2021/03/30 03:53:29;;;;;;;10.18;2.75;;;12.30;99.90;;;;;;5071002;28;20027;-85
2021/03/30 03:55:57;;;;;;;9.35;2.40;;;12.30;99.90;;;;;;5070916;28;20078;-87
2021/03/30 03:58:31;;;;;;;10.68;2.80;;;12.30;99.90;;;;;;5070951;28;20027;-88
2021/03/30 04:00:59;;;;;;;9.80;2.92;;;12.30;99.90;;;;;;5070758;28;20470;-85
2021/03/30 04:03:27;;;;;;;11.43;2.65;;;12.30;99.90;;;;;;5071207;28;20119;-83
2021/03/30 04:06:35;;;;;;;11.43;2.65;;;12.30;99.90;;;;;;5071344;28;20046;-86
2021/03/30 04:09:02;;;;;;;10.32;2.22;;;12.30;99.90;;;;;;5088986;28;20051;-84
2021/03/30 04:11:29;;;;;;;7.68;2.40;;;12.40;99.90;;;;;;5054662;28;20032;-86
2021/03/30 04:13:58;;;;;;;9.35;2.25;;;12.30;99.90;;;;;;5070481;28;20028;-86
2021/03/30 04:16:24;;;;;;;6.05;2.83;;;12.40;99.90;;;;;;5089045;28;20020;-86
2021/03/30 04:18:50;;;;;;;5.90;2.05;;;12.40;99.90;;;;;;5037223;28;20032;-84
2021/03/30 04:21:21;;;;;;;5.70;2.15;;;12.40;99.90;;;;;;5053540;28;20064;-85
2021/03/30 04:23:49;;;;;;;7.88;2.72;;;12.40;99.90;;;;;;5088506;28;20305;-86
2021/03/30 04:26:14;;;;;;;4.82;2.47;;;12.30;99.90;;;;;;5088720;28;20028;-83
2021/03/30 04:28:40;;;;;;;6.07;2.08;;;12.30;99.90;;;;;;5037339;28;20492;-85
2021/03/30 04:31:06;;;;;;;5.00;2.05;;;12.30;99.90;;;;;;5037620;28;20113;-85
2021/03/30 04:33:32;;;;;;;6.03;2.78;;;12.30;99.90;;;;;;5070357;28;20364;-86
2021/03/30 04:35:58;;;;;;;9.35;2.92;;;12.20;99.90;;;;;;5055273;28;20032;-85
2021/03/30 04:38:24;;;;;;;7.53;2.58;;;12.20;99.90;;;;;;5057650;28;20575;-86
2021/03/30 04:40:53;;;;;;;6.50;1.98;;;12.20;99.90;;;;;;5057846;28;20063;-85
2021/03/30 04:43:23;;;;;;;5.30;2.38;;;12.20;99.90;;;;;;5074611;28;20039;-83
2021/03/30 04:45:48;;;;;;;9.10;2.53;;;12.10;99.90;;;;;;5058303;28;20032;-82
2021/03/30 04:48:14;;;;;;;7.20;2.20;;;12.10;99.90;;;;;;5074316;28;20095;-83
2021/03/30 04:50:40;;;;;;;8.45;2.00;;;12.10;99.90;;;;;;5057286;28;20051;-84
2021/03/30 04:53:06;;;;;;;6.47;1.70;;;12.10;99.90;;;;;;5073856;28;20032;-84
2021/03/30 04:55:32;;;;;;;4.70;2.13;;;12.10;99.90;;;;;;5057195;28;20035;-85
2021/03/30 04:57:58;;;;;;;8.02;2.30;;;12.10;99.90;;;;;;5057055;28;20024;-86
2021/03/30 05:00:24;;;;;;;8.00;2.20;;;12.10;99.90;;;;;;5056814;28;20189;-85
2021/03/30 05:02:49;;;;;;;5.85;2.20;;;12.10;99.90;;;;;;5057008;28;20028;-85
2021/03/30 05:05:16;;;;;;;6.03;2.30;;;12.10;99.90;;;;;;5057126;28;20032;-87
2021/03/30 05:07:41;;;;;;;7.05;3.25;;;12.10;99.90;;;;;;5056312;28;20486;-85
2021/03/30 05:10:08;;;;;;;5.28;2.10;;;12.20;99.90;;;;;;5073423;28;20105;-87
2021/03/30 05:12:34;;;;;;;6.05;1.90;;;12.20;99.90;;;;;;5073726;28;20043;-87
2021/03/30 05:14:59;;;;;;;10.82;2.78;;;12.20;99.90;;;;;;5056905;28;20028;-85
2021/03/30 05:17:25;;;;;;;5.90;1.90;;;12.20;99.90;;;;;;5073789;28;20102;-85
2021/03/30 05:19:51;;;;;;;8.40;2.47;;;12.20;99.90;;;;;;5056950;28;20024;-86
2021/03/30 05:22:16;;;;;;;5.53;2.55;;;12.20;99.90;;;;;;5040074;28;20028;-84
2021/03/30 05:24:42;;;;;;;11.25;2.53;;;12.20;99.90;;;;;;5073258;28;20032;-85
2021/03/30 05:27:08;;;;;;;9.60;2.38;;;12.20;99.90;;;;;;5073183;28;20102;-84
2021/03/30 05:29:42;;;;;;;6.88;2.92;;;12.10;99.90;;;;;;5073205;28;20103;-86
2021/03/30 05:32:12;;;;;;;11.25;2.47;;;12.10;99.90;;;;;;5057755;28;20039;-85
2021/03/30 05:34:38;;;;;;;;;;;12.00;99.90;;;;;;5057087;28;20040;-87
2021/03/30 05:37:04;;;;;;;7.22;1.90;;;12.10;99.90;;;;;;5056037;28;19908;-86
2021/03/30 05:39:31;;;;;;;5.22;2.03;;;12.00;99.90;;;;;;5039804;28;20028;-85
2021/03/30 05:41:57;;;;;;;7.03;2.30;;;12.00;99.90;;;;;;5072683;28;20535;-85
2021/03/30 05:44:24;;;;;;;6.57;2.08;;;12.00;99.90;;;;;;5056281;28;20028;-86
2021/03/30 05:49:27;;;;;;;6.18;2.00;;;11.90;99.90;;;;;;5059773;28;20060;-85
2021/03/30 05:51:55;;;;;;;5.43;1.98;;;11.90;99.90;;;;;;5072260;28;20079;-84
2021/03/30 05:54:24;;;;;;;5.85;2.03;;;11.90;99.90;;;;;;5072861;28;20028;-87
2021/03/30 05:56:52;;;;;;;6.38;2.00;;;11.80;99.90;;;;;;5072657;28;20124;-85
2021/03/30 05:59:20;;;;;;;7.00;1.70;;;11.70;99.90;;;;;;5072657;28;20026;-86
2021/03/30 06:01:49;;;;;;;6.00;2.67;;;11.60;99.90;;;;;;5055470;28;20109;-88
2021/03/30 06:04:16;;;;;;;6.03;1.90;;;11.50;99.90;;;;;;5073000;28;20028;-84
2021/03/30 06:06:41;;;;;;;9.52;2.13;;;11.40;99.90;;;;;;5072747;28;20078;-85
2021/03/30 06:09:07;;;;;;;3.08;1.77;;;11.30;99.90;;;;;;5055759;28;20550;-85
2021/03/30 06:11:33;;;;;;;9.23;2.25;;;11.20;99.90;;;;;;5072285;28;20418;-84
2021/03/30 06:13:59;;;;;;;14.55;2.40;;;11.10;99.90;;;;;;5039314;28;20085;-85
2021/03/30 06:16:26;;;;;;;8.73;2.67;;;11.10;99.90;;;;;;5072770;28;20031;-86
2021/03/30 06:19:07;;;;;;;4.80;2.10;;;11.00;99.90;;;;;;5072318;28;20031;-86
2021/03/30 06:21:45;;;;;;;6.10;2.35;;;11.00;99.90;;;;;;5072467;28;20047;-87
2021/03/30 06:24:20;;;;;;;11.98;2.72;;;11.00;99.90;;;;;;5072548;28;20070;-86
2021/03/30 06:26:46;;;;;;;6.55;2.30;;;11.00;99.90;;;;;;5090317;28;20032;-86
2021/03/30 06:29:35;;;;;;;6.03;1.80;;;11.00;99.90;;;;;;5072646;28;20024;-85
2021/03/30 06:32:10;;;;;;;8.63;2.20;;;11.00;99.90;;;;;;5090959;28;20614;-84
2021/03/30 06:34:43;;;;;;;4.75;1.95;;;11.00;99.90;;;;;;5072491;28;20024;-86
2021/03/30 06:37:28;;;;;;;21.48;10.55;;;11.00;99.90;;;;;;5055677;28;20174;-86
2021/03/30 06:39:55;;;;;;;5.20;1.52;;;11.00;99.90;;;;;;5071899;28;20058;-83
2021/03/30 06:42:38;;;;;;;5.95;1.80;;;11.10;99.90;;;;;;5072088;28;20020;-81
2021/03/30 06:45:20;;;;;;;6.10;2.50;;;11.10;99.90;;;;;;5091140;28;20090;-84
2021/03/30 06:47:49;;;;;;;8.70;2.15;;;11.10;99.90;;;;;;5072008;28;20051;-83
2021/03/30 06:50:27;;;;;;;3.58;1.70;;;11.20;99.90;;;;;;5089978;28;20024;-83
2021/03/30 06:53:08;;;;;;;7.60;2.15;;;11.30;99.90;;;;;;5073062;28;20020;-86
2021/03/30 06:55:34;;;;;;;13.85;2.70;;;11.30;99.90;;;;;;5072881;28;20020;-85
2021/03/30 06:58:02;;;;;;;6.40;1.80;;;11.30;99.90;;;;;;5055709;28;20028;-83
2021/03/30 07:00:36;;;;;;;5.63;1.95;;;11.40;99.90;;;;;;5070844;28;20048;-86
2021/03/30 07:03:09;;;;;;;6.38;1.80;;;11.40;99.90;;;;;;5089381;28;20081;-85
2021/03/30 07:05:41;;;;;;;5.43;1.23;;;11.50;99.90;;;;;;5054942;28;20028;-86
2021/03/30 07:08:11;;;;;;;6.25;1.63;;;11.60;99.90;;;;;;5071651;28;20039;-87
2021/03/30 07:10:41;;;;;;;10.73;1.75;;;11.70;99.90;;;;;;5089545;28;20028;-85
2021/03/30 07:13:09;;;;;;;5.88;2.10;;;11.80;99.90;;;;;;5090110;28;20020;-89
2021/03/30 07:15:35;;;;;;;7.38;2.00;;;11.80;99.90;;;;;;5055573;28;20482;-86
2021/03/30 07:18:25;;;;;;;7.18;1.63;;;12.00;99.90;;;;;;5071701;28;20112;-88
2021/03/30 07:21:00;;;;;;;6.03;1.30;;;12.00;99.90;;;;;;5071757;28;20028;-84
2021/03/30 07:23:32;;;;;;;5.22;2.10;;;12.10;99.90;;;;;;5089451;28;20035;-85
2021/03/30 07:26:10;;;;;;;10.43;2.10;;;12.20;99.90;;;;;;5071593;28;20090;-87
2021/03/30 07:29:03;;;;;;;8.20;1.65;;;12.30;99.90;;;;;;5088665;28;20082;-86
2021/03/30 07:31:32;;;;;;;5.85;1.95;;;12.40;99.90;;;;;;5070881;28;20031;-84
2021/03/30 07:33:59;;;;;;;4.10;1.75;;;12.50;99.90;;;;;;5070646;28;20447;-87
2021/03/30 07:36:28;;;;;;;9.07;2.45;;;12.60;99.90;;;;;;5070752;28;20032;-85
2021/03/30 07:39:01;;;;;;;7.88;1.98;;;12.70;99.90;;;;;;5070946;28;20024;-84
2021/03/30 07:41:27;;;;;;;3.55;1.48;;;12.80;99.90;;;;;;5070707;28;20070;-84
2021/03/30 07:43:58;;;;;;;5.38;1.75;;;12.90;99.90;;;;;;5053652;28;20114;-83
2021/03/30 07:46:24;;;;;;;6.35;2.03;;;13.10;99.80;;;;;;5088280;28;20031;-88
2021/03/30 07:48:50;;;;;;;4.18;1.50;;;13.30;99.80;;;;;;5036939;28;20036;-84
2021/03/30 07:51:24;;;;;;;4.00;1.40;;;13.60;99.50;;;;;;5070313;28;20048;-85
2021/03/30 07:53:55;;;;;;;7.55;1.77;;;14.00;99.40;;;;;;5070391;28;20420;-83
2021/03/30 07:56:24;;;;;;;3.97;1.23;;;14.50;98.90;;;;;;5070333;28;20111;-85
2021/03/30 07:58:51;;;;;;;4.32;1.17;;;15.00;97.80;;;;;;5069843;28;20055;-84
2021/03/30 08:01:23;;;;;;;3.17;0.95;;;15.30;96.90;;;;;;5069590;28;20024;-84
2021/03/30 08:03:52;;;;;;;6.85;1.33;;;15.60;96.10;;;;;;5069812;28;20050;-83
2021/03/30 08:06:20;;;;;;;7.03;2.10;;;15.80;95.30;;;;;;5070246;28;20039;-85
2021/03/30 08:09:04;;;;;;;3.47;1.23;;;15.90;94.80;;;;;;5069648;28;20379;-85
2021/03/30 08:11:48;;;;;;;5.25;1.10;;;16.00;94.20;;;;;;5068894;28;20028;-86
2021/03/30 08:14:17;;;;;;;3.33;0.98;;;16.20;94.10;;;;;;5070051;28;20422;-83
2021/03/30 08:16:44;;;;;;;4.90;1.50;;;16.50;93.70;;;;;;5070137;28;20432;-86
2021/03/30 08:19:13;;;;;;;3.63;0.90;;;16.80;93.10;;;;;;5054513;28;20386;-88
2021/03/30 08:22:02;;;;;;;4.50;1.10;;;17.10;92.60;;;;;;5070031;28;20110;-84
2021/03/30 08:24:48;;;;;;;;;;;17.50;92.20;;;;;;5069961;28;20357;-84
2021/03/30 08:27:35;;;;;;;3.88;0.90;;;18.00;91.90;;;;;;5087788;28;19904;-85
2021/03/30 08:30:14;;;;;;;3.10;0.93;;;18.50;90.80;;;;;;5069665;28;20382;-85
2021/03/30 08:32:45;;;;;;;;;;;18.90;90.50;;;;;;5087984;28;20099;-85
2021/03/30 08:35:32;;;;;;;2.70;1.02;;;19.40;91.20;;;;;;5069560;28;19910;-88
2021/03/30 08:38:02;;;;;;;2.67;1.20;;;20.00;90.40;;;;;;5068975;28;20433;-87
2021/03/30 08:40:34;;;;;;;4.22;1.27;;;20.60;87.90;;;;;;5052958;28;20394;-86
2021/03/30 08:43:00;;;;;;;4.28;1.63;;;21.20;84.70;;;;;;5069404;28;20063;-85
2021/03/30 08:45:25;;;;;;;5.15;1.10;;;21.50;82.80;;;;;;5087772;28;20020;-86
2021/03/30 08:48:09;;;;;;;2.58;1.15;;;21.90;80.90;;;;;;5069575;28;20355;-85
2021/03/30 08:50:35;;;;;;;3.90;1.00;;;22.30;78.90;;;;;;5071666;28;20458;-87
2021/03/30 08:53:03;;;;;;;4.47;1.05;;;22.40;75.80;;;;;;5036577;28;20036;-84
2021/03/30 08:55:32;;;;;;;3.80;0.93;;;22.40;74.80;;;;;;5054120;28;20028;-87
2021/03/30 08:58:00;;;;;;;7.65;1.38;;;22.60;73.60;;;;;;5069075;28;20078;-87
2021/03/30 09:00:26;;;;;;;5.10;0.90;;;22.80;73.30;;;;;;5087417;28;20347;-85
2021/03/30 09:03:00;;;;;;;3.78;1.55;;;23.20;72.10;;;;;;5052987;28;20445;-85
2021/03/30 09:05:26;;;;;;;3.45;0.90;;;23.60;70.20;;;;;;5087932;28;20082;-84
2021/03/30 09:07:52;;;;;;;2.13;0.73;;;23.90;68.90;;;;;;5069626;28;20425;-85
2021/03/30 09:10:18;;;;;;;1.42;0.80;;;24.10;67.10;;;;;;5070033;28;20028;-86
2021/03/30 09:12:46;;;;;;;2.00;1.02;;;24.30;66.00;;;;;;5087260;28;20017;-85
2021/03/30 09:15:14;;;;;;;1.92;0.82;;;24.30;65.00;;;;;;5053908;28;20414;-86
2021/03/30 09:18:01;;;;;;;3.65;0.90;;;24.50;65.00;;;;;;5068689;28;20064;-86
2021/03/30 09:20:29;;;;;;;3.08;0.70;;;24.80;63.90;;;;;;5087535;28;20062;-88
2021/03/30 09:22:58;;;;;;;3.10;1.05;;;25.10;63.70;;;;;;5089202;28;20027;-87
2021/03/30 09:25:34;;;;;;;;;;;25.30;62.60;;;;;;5073281;28;20471;-85
2021/03/30 09:28:01;;;;;;;1.20;0.60;;;25.40;62.70;;;;;;5072736;28;20018;-86
2021/03/30 09:30:27;;;;;;;2.33;0.80;;;25.50;62.20;;;;;;5072102;28;20028;-89
2021/03/30 09:32:54;;;;;;;2.63;0.90;;;25.50;61.20;;;;;;5056026;28;20028;-88
2021/03/30 09:35:28;;;;;;;2.22;0.85;;;25.70;60.00;;;;;;5072751;28;20024;-85
2021/03/30 09:38:01;;;;;;;2.17;0.77;;;25.60;58.70;;;;;;5091585;28;20386;-88
2021/03/30 09:40:40;;;;;;;4.85;0.90;;;25.70;58.60;;;;;;5072062;28;20020;-86
2021/03/30 09:43:07;;;;;;;6.10;1.20;;;25.70;57.80;;;;;;5073238;28;20030;-86
2021/03/30 09:45:35;;;;;;;1.48;0.82;;;25.70;57.70;;;;;;5071336;28;20033;-84
2021/03/30 09:48:05;;;;;;;2.35;1.13;;;25.80;57.30;;;;;;5056508;28;20028;-86
2021/03/30 09:50:31;;;;;;;2.03;0.80;;;25.80;56.70;;;;;;5089463;28;20170;-87
2021/03/30 09:53:03;;;;;;;2.78;0.88;;;26.00;57.40;;;;;;5072690;28;20060;-84
2021/03/30 09:55:40;;;;;;;3.78;1.40;;;26.20;56.20;;;;;;5072274;28;20118;-86
2021/03/30 09:58:15;;;;;;;4.10;1.20;;;26.30;55.70;;;;;;5072353;28;20081;-87
2021/03/30 10:00:50;;;;;;;5.95;1.27;;;26.30;55.90;;;;;;5072233;28;20020;-88
2021/03/30 10:03:17;;;;;;;3.17;1.38;;;26.60;55.70;;;;;;5090031;28;20421;-84
2021/03/30 10:05:44;;;;;;;2.80;1.08;;;26.80;55.40;;;;;;5055230;28;20093;-87
2021/03/30 10:08:26;;;;;;;4.00;1.40;;;27.10;55.70;;;;;;5072099;28;20171;-87
2021/03/30 10:10:54;;;;;;;5.53;1.75;;;27.50;55.00;;;;;;5056210;28;20096;-84
2021/03/30 10:13:23;;;;;;;12.15;3.78;;;27.90;54.30;;;;;;5039492;28;20125;-86
2021/03/30 10:15:50;;;;;;;4.13;1.73;;;28.00;53.50;;;;;;5072753;28;20016;-83
2021/03/30 10:18:17;;;;;;;6.60;2.13;;;28.00;52.90;;;;;;5039126;28;20039;-87
2021/03/30 10:20:47;;;;;;;7.47;1.20;;;28.00;52.30;;;;;;5054729;28;20086;-76
2021/03/30 10:23:20;;;;;;;11.32;2.58;;;27.90;51.90;;;;;;5073094;28;20024;-86
2021/03/30 10:25:46;;;;;;;8.30;1.33;;;27.90;51.90;;;;;;5072540;28;20363;-84
2021/03/30 10:28:23;;;;;;;3.85;1.50;;;28.10;52.70;;;;;;5055271;28;20035;-88
2021/03/30 10:30:53;;;;;;;4.20;1.60;;;28.20;52.00;;;;;;5055974;28;20028;-87
2021/03/30 10:33:42;;;;;;;8.30;1.90;;;28.30;52.20;;;;;;5055210;28;20043;-84
2021/03/30 10:36:10;;;;;;;5.13;2.00;;;28.60;51.20;;;;;;5072772;28;20016;-86
2021/03/30 10:38:39;;;;;;;2.63;1.38;;;28.60;51.10;;;;;;5071996;28;20024;-85
2021/03/30 10:41:07;;;;;;;4.07;1.73;;;28.60;50.70;;;;;;5071372;28;20035;-85
2021/03/30 10:43:33;;;;;;;5.93;1.60;;;28.50;50.50;;;;;;5070991;28;20123;-85
2021/03/30 10:45:59;;;;;;;4.10;1.77;;;28.50;50.50;;;;;;5072653;28;20087;-87
2021/03/30 10:48:25;;;;;;;10.70;2.28;;;28.50;50.00;;;;;;5054958;28;20387;-85
2021/03/30 10:50:53;;;;;;;4.30;2.17;;;28.60;49.70;;;;;;5071247;28;20052;-86
2021/03/30 10:53:19;;;;;;;11.07;1.88;;;28.90;49.80;;;;;;5070837;28;20023;-85
2021/03/30 10:55:45;;;;;;;7.13;2.45;;;29.10;49.50;;;;;;5071095;28;20107;-86
2021/03/30 10:58:13;;;;;;;8.57;2.33;;;29.30;49.10;;;;;;5037262;28;20130;-88
2021/03/30 11:00:39;;;;;;;5.82;1.83;;;29.50;49.00;;;;;;5054747;28;20435;-83
2021/03/30 11:03:06;;;;;;;9.75;3.33;;;29.70;48.80;;;;;;5070560;28;20028;-88
2021/03/30 11:05:34;;;;;;;4.82;1.77;;;29.80;48.30;;;;;;5070417;28;20046;-86
2021/03/30 11:08:00;;;;;;;7.85;2.30;;;29.80;48.40;;;;;;5070998;28;20047;-84
2021/03/30 11:10:26;;;;;;;6.72;2.25;;;29.90;48.50;;;;;;5053294;28;20028;-85
2021/03/30 11:12:52;;;;;;;5.90;1.95;;;29.80;48.80;;;;;;5071189;28;20074;-84
2021/03/30 11:15:18;;;;;;;4.68;2.38;;;29.80;48.40;;;;;;5072016;28;20028;-86
2021/03/30 11:17:44;;;;;;;6.32;2.03;;;29.80;48.30;;;;;;5071528;28;20025;-83
2021/03/30 11:20:13;;;;;;;7.78;2.42;;;30.00;48.10;;;;;;5037146;28;20106;-86
2021/03/30 11:22:48;;;;;;;9.27;2.55;;;30.20;47.80;;;;;;5054641;28;20031;-83
2021/03/30 11:25:15;;;;;;;4.22;1.80;;;30.50;48.00;;;;;;5071418;28;20032;-87
2021/03/30 11:27:45;;;;;;;7.68;2.45;;;30.70;47.30;;;;;;5088564;28;20028;-88
2021/03/30 11:30:22;;;;;;;6.50;2.10;;;31.00;47.40;;;;;;5054495;28;20498;-84
2021/03/30 11:32:53;;;;;;;4.93;2.15;;;31.20;47.10;;;;;;5072202;28;20073;-85
2021/03/30 11:35:23;;;;;;;7.13;2.70;;;31.10;46.80;;;;;;5071096;28;20047;-83
2021/03/30 11:40:33;;;;;;;4.90;2.05;;;31.00;46.30;;;;;;5058672;28;20053;-83
2021/03/30 11:42:59;;;;;;;6.38;3.08;;;30.90;46.20;;;;;;5038672;28;20028;-85
2021/03/30 11:45:24;;;;;;;7.93;1.98;;;30.90;45.80;;;;;;5070832;28;20027;-87
2021/03/30 11:47:50;;;;;;;7.35;2.58;;;30.80;45.80;;;;;;5070946;28;20036;-86
2021/03/30 11:50:16;;;;;;;7.93;2.58;;;30.80;45.90;;;;;;5070184;28;20059;-87
2021/03/30 11:52:42;;;;;;;9.90;2.75;;;31.00;45.80;;;;;;5037420;28;20035;-87
2021/03/30 11:55:10;;;;;;;8.57;3.63;;;30.90;45.50;;;;;;5053246;28;20036;-87
2021/03/30 11:57:36;;;;;;;8.50;2.17;;;31.00;45.80;;;;;;5054569;28;20050;-87
2021/03/30 12:00:03;;;;;;;8.27;2.13;;;30.90;45.30;;;;;;5070239;28;20032;-88
2021/03/30 12:02:32;;;;;;;7.80;2.78;;;30.80;45.20;;;;;;5054467;28;20066;-86
2021/03/30 12:04:57;;;;;;;6.38;2.75;;;30.80;45.90;;;;;;5070342;28;20388;-85
2021/03/30 12:07:23;;;;;;;6.90;2.45;;;31.00;45.20;;;;;;5054481;28;20067;-85
2021/03/30 12:09:49;;;;;;;5.30;2.50;;;30.90;44.20;;;;;;5038453;28;20086;-84
2021/03/30 12:12:14;;;;;;;7.18;2.80;;;30.70;44.60;;;;;;5053096;28;20506;-86
2021/03/30 12:14:40;;;;;;;7.32;2.67;;;30.60;45.00;;;;;;5069919;28;20535;-85
2021/03/30 12:17:06;;;;;;;9.25;3.47;;;30.70;45.30;;;;;;5036410;28;20052;-85
2021/03/30 12:19:31;;;;;;;10.10;3.15;;;30.80;45.00;;;;;;5054106;28;20038;-85
2021/03/30 12:21:57;;;;;;;11.70;3.20;;;31.00;45.00;;;;;;5054320;28;20024;-85
2021/03/30 12:24:23;;;;;;;10.98;3.15;;;31.00;44.30;;;;;;5038316;28;20024;-86
2021/03/30 12:26:48;;;;;;;7.10;2.38;;;31.10;44.40;;;;;;5069396;28;20031;-83
2021/03/30 12:29:14;;;;;;;7.10;2.15;;;31.00;43.90;;;;;;5036241;28;20027;-86
2021/03/30 12:31:40;;;;;;;10.02;2.70;;;30.90;43.70;;;;;;5069264;28;20344;-88
2021/03/30 12:34:06;;;;;;;6.65;2.63;;;30.60;43.90;;;;;;5071609;28;20032;-87
2021/03/30 12:36:32;;;;;;;9.10;3.10;;;30.50;44.10;;;;;;5069401;28;20046;-88
2021/03/30 12:38:58;;;;;;;9.75;2.80;;;30.30;44.40;;;;;;5069827;28;20024;-85
2021/03/30 12:41:24;;;;;;;8.45;2.83;;;30.30;44.40;;;;;;5053954;28;20066;-86
2021/03/30 12:43:50;;;;;;;7.78;3.10;;;30.30;44.10;;;;;;5053483;28;20102;-88
2021/03/30 12:46:16;;;;;;;8.57;2.97;;;30.20;44.00;;;;;;5053126;28;20024;-85
2021/03/30 12:48:41;;;;;;;10.30;3.55;;;30.20;44.60;;;;;;5053439;28;20050;-86
2021/03/30 12:51:07;;;;;;;6.82;2.78;;;30.40;44.80;;;;;;5071252;28;20529;-87
2021/03/30 12:53:33;;;;;;;9.10;3.15;;;30.50;44.00;;;;;;5088520;28;20471;-86
2021/03/30 12:55:59;;;;;;;10.75;3.25;;;30.30;43.60;;;;;;5087454;28;20134;-86
2021/03/30 12:58:25;;;;;;;7.97;3.10;;;30.10;43.50;;;;;;5091942;28;20072;-84
2021/03/30 13:00:51;;;;;;;9.57;2.63;;;30.00;43.80;;;;;;5075915;28;20540;-85
2021/03/30 13:03:16;;;;;;;6.22;2.67;;;29.90;44.40;;;;;;5074962;28;20112;-86